sensor_id;sensor_type;location;lat;lon;timestamp;temperature;humidity
42201;DHT22;27869;51.442;7.540;2022-09-09T00:00:59;16.50;99.90
42201;DHT22;27869;51.442;7.540;2022-09-09T00:03:31;16.50;99.90
42201;DHT22;27869;51.442;7.540;2022-09-09T00:06:08;16.40;99.90
42201;DHT22;27869;51.442;7.540;2022-09-09T00:08:42;16.40;99.90
42201;DHT22;27869;51.442;7.540;2022-09-09T00:11:14;16.40;99.90
42201;DHT22;27869;51.442;7.540;2022-09-09T00:13:47;16.40;99.90
42201;DHT22;27869;51.442;7.540;2022-09-09T00:16:18;16.40;99.90
42201;DHT22;27869;51.442;7.540;2022-09-09T00:18:52;16.40;99.90
42201;DHT22;27869;51.442;7.540;2022-09-09T00:21:25;16.40;99.90
42201;DHT22;27869;51.442;7.540;2022-09-09T00:23:55;16.40;99.90
42201;DHT22;27869;51.442;7.540;2022-09-09T00:26:30;16.40;99.90
42201;DHT22;27869;51.442;7.540;2022-09-09T00:29:03;16.40;99.90
42201;DHT22;27869;51.442;7.540;2022-09-09T00:31:31;16.30;99.90
42201;DHT22;27869;51.442;7.540;2022-09-09T00:34:05;16.30;99.90
42201;DHT22;27869;51.442;7.540;2022-09-09T00:36:38;16.30;99.90
42201;DHT22;27869;51.442;7.540;2022-09-09T00:39:06;16.20;99.90
42201;DHT22;27869;51.442;7.540;2022-09-09T00:41:48;16.20;99.90
42201;DHT22;27869;51.442;7.540;2022-09-09T00:44:28;16.10;99.90
42201;DHT22;27869;51.442;7.540;2022-09-09T00:47:09;16.10;99.90
42201;DHT22;27869;51.442;7.540;2022-09-09T00:49:45;16.00;99.90
42201;DHT22;27869;51.442;7.540;2022-09-09T00:52:28;16.00;99.90
42201;DHT22;27869;51.442;7.540;2022-09-09T00:55:03;16.00;99.90
42201;DHT22;27869;51.442;7.540;2022-09-09T00:57:32;16.00;99.90
42201;DHT22;27869;51.442;7.540;2022-09-09T01:00:17;15.90;99.90
42201;DHT22;27869;51.442;7.540;2022-09-09T01:03:02;15.90;99.90
42201;DHT22;27869;51.442;7.540;2022-09-09T01:05:37;15.90;99.90
42201;DHT22;27869;51.442;7.540;2022-09-09T01:08:18;15.80;99.90
42201;DHT22;27869;51.442;7.540;2022-09-09T01:10:51;15.80;99.90
42201;DHT22;27869;51.442;7.540;2022-09-09T01:13:24;15.70;99.90
42201;DHT22;27869;51.442;7.540;2022-09-09T01:15:51;15.70;99.90
42201;DHT22;27869;51.442;7.540;2022-09-09T01:18:22;15.60;99.90
42201;DHT22;27869;51.442;7.540;2022-09-09T01:21:08;15.70;99.90
42201;DHT22;27869;51.442;7.540;2022-09-09T01:23:48;15.60;99.90
42201;DHT22;27869;51.442;7.540;2022-09-09T01:26:26;15.60;99.90
42201;DHT22;27869;51.442;7.540;2022-09-09T01:28:54;15.50;99.90
42201;DHT22;27869;51.442;7.540;2022-09-09T01:31:23;15.50;99.90
42201;DHT22;27869;51.442;7.540;2022-09-09T01:33:51;15.50;99.90
42201;DHT22;27869;51.442;7.540;2022-09-09T01:36:24;15.50;99.90
42201;DHT22;27869;51.442;7.540;2022-09-09T01:38:53;15.50;99.90
42201;DHT22;27869;51.442;7.540;2022-09-09T01:41:20;15.50;99.90
42201;DHT22;27869;51.442;7.540;2022-09-09T01:43:49;15.50;99.90
42201;DHT22;27869;51.442;7.540;2022-09-09T01:46:17;15.50;99.90
42201;DHT22;27869;51.442;7.540;2022-09-09T01:48:45;15.50;99.90
42201;DHT22;27869;51.442;7.540;2022-09-09T01:51:12;15.50;99.90
42201;DHT22;27869;51.442;7.540;2022-09-09T01:53:40;15.60;99.90
42201;DHT22;27869;51.442;7.540;2022-09-09T01:56:18;15.60;99.90
42201;DHT22;27869;51.442;7.540;2022-09-09T01:59:02;15.60;99.90
42201;DHT22;27869;51.442;7.540;2022-09-09T02:01:38;15.60;99.90
42201;DHT22;27869;51.442;7.540;2022-09-09T02:04:18;15.70;99.90
42201;DHT22;27869;51.442;7.540;2022-09-09T02:06:48;15.70;99.90
42201;DHT22;27869;51.442;7.540;2022-09-09T02:09:18;15.70;99.90
42201;DHT22;27869;51.442;7.540;2022-09-09T02:11:47;15.80;99.90
42201;DHT22;27869;51.442;7.540;2022-09-09T02:14:21;15.80;99.90
42201;DHT22;27869;51.442;7.540;2022-09-09T02:16:52;15.80;99.90
42201;DHT22;27869;51.442;7.540;2022-09-09T02:19:23;15.80;99.90
42201;DHT22;27869;51.442;7.540;2022-09-09T02:21:53;15.80;99.90
42201;DHT22;27869;51.442;7.540;2022-09-09T02:24:22;15.90;99.90
42201;DHT22;27869;51.442;7.540;2022-09-09T02:26:51;15.90;99.90
42201;DHT22;27869;51.442;7.540;2022-09-09T02:29:23;15.90;99.90
42201;DHT22;27869;51.442;7.540;2022-09-09T02:31:53;15.90;99.90
42201;DHT22;27869;51.442;7.540;2022-09-09T02:34:23;15.90;99.90
42201;DHT22;27869;51.442;7.540;2022-09-09T02:36:54;15.90;99.90
42201;DHT22;27869;51.442;7.540;2022-09-09T02:39:22;16.00;99.90
42201;DHT22;27869;51.442;7.540;2022-09-09T02:41:48;16.00;99.90
42201;DHT22;27869;51.442;7.540;2022-09-09T02:44:17;15.90;99.90
42201;DHT22;27869;51.442;7.540;2022-09-09T02:47:04;16.00;99.90
42201;DHT22;27869;51.442;7.540;2022-09-09T02:49:40;16.00;99.90
42201;DHT22;27869;51.442;7.540;2022-09-09T02:52:14;15.90;99.90
42201;DHT22;27869;51.442;7.540;2022-09-09T02:54:42;16.00;99.90
42201;DHT22;27869;51.442;7.540;2022-09-09T02:57:11;16.00;99.90
42201;DHT22;27869;51.442;7.540;2022-09-09T02:59:39;16.00;99.90
42201;DHT22;27869;51.442;7.540;2022-09-09T03:02:08;16.00;99.90
42201;DHT22;27869;51.442;7.540;2022-09-09T03:04:36;16.00;99.90
42201;DHT22;27869;51.442;7.540;2022-09-09T03:07:04;16.00;99.90
42201;DHT22;27869;51.442;7.540;2022-09-09T03:09:31;16.00;99.90
42201;DHT22;27869;51.442;7.540;2022-09-09T03:11:58;16.00;99.90
42201;DHT22;27869;51.442;7.540;2022-09-09T03:14:25;16.00;99.90
42201;DHT22;27869;51.442;7.540;2022-09-09T03:16:53;16.00;99.90
42201;DHT22;27869;51.442;7.540;2022-09-09T03:19:21;16.00;99.90
42201;DHT22;27869;51.442;7.540;2022-09-09T03:21:48;16.00;99.90
42201;DHT22;27869;51.442;7.540;2022-09-09T03:24:15;16.00;99.90
42201;DHT22;27869;51.442;7.540;2022-09-09T03:26:42;15.90;99.90
42201;DHT22;27869;51.442;7.540;2022-09-09T03:29:10;16.00;99.90
42201;DHT22;27869;51.442;7.540;2022-09-09T03:31:38;16.00;99.90
42201;DHT22;27869;51.442;7.540;2022-09-09T03:34:05;15.90;99.90
42201;DHT22;27869;51.442;7.540;2022-09-09T03:36:33;16.00;99.90
42201;DHT22;27869;51.442;7.540;2022-09-09T03:39:00;15.90;99.90
42201;DHT22;27869;51.442;7.540;2022-09-09T03:41:29;15.90;99.90
42201;DHT22;27869;51.442;7.540;2022-09-09T03:43:56;15.90;99.90
42201;DHT22;27869;51.442;7.540;2022-09-09T03:46:24;15.90;99.90
42201;DHT22;27869;51.442;7.540;2022-09-09T03:48:52;15.90;99.90
42201;DHT22;27869;51.442;7.540;2022-09-09T03:51:20;15.90;99.90
42201;DHT22;27869;51.442;7.540;2022-09-09T03:53:48;15.90;99.90
42201;DHT22;27869;51.442;7.540;2022-09-09T03:56:16;15.90;99.90
42201;DHT22;27869;51.442;7.540;2022-09-09T03:58:43;15.90;99.90
42201;DHT22;27869;51.442;7.540;2022-09-09T04:01:11;15.90;99.90
42201;DHT22;27869;51.442;7.540;2022-09-09T04:03:39;15.90;99.90
42201;DHT22;27869;51.442;7.540;2022-09-09T04:06:07;15.90;99.90
42201;DHT22;27869;51.442;7.540;2022-09-09T04:08:35;15.80;99.90
42201;DHT22;27869;51.442;7.540;2022-09-09T04:11:05;15.80;99.90
42201;DHT22;27869;51.442;7.540;2022-09-09T04:13:33;15.80;99.90
42201;DHT22;27869;51.442;7.540;2022-09-09T04:16:01;15.80;99.90
42201;DHT22;27869;51.442;7.540;2022-09-09T04:18:29;15.80;99.90
42201;DHT22;27869;51.442;7.540;2022-09-09T04:20:56;15.80;99.90
42201;DHT22;27869;51.442;7.540;2022-09-09T04:23:26;15.80;99.90
42201;DHT22;27869;51.442;7.540;2022-09-09T04:25:55;15.80;99.90
42201;DHT22;27869;51.442;7.540;2022-09-09T04:28:26;15.80;99.90
42201;DHT22;27869;51.442;7.540;2022-09-09T04:30:53;15.80;99.90
42201;DHT22;27869;51.442;7.540;2022-09-09T04:33:20;15.80;99.90
42201;DHT22;27869;51.442;7.540;2022-09-09T04:35:48;15.80;99.90
42201;DHT22;27869;51.442;7.540;2022-09-09T04:38:16;15.70;99.90
42201;DHT22;27869;51.442;7.540;2022-09-09T04:40:44;15.80;99.90
42201;DHT22;27869;51.442;7.540;2022-09-09T04:43:12;15.80;99.90
42201;DHT22;27869;51.442;7.540;2022-09-09T04:45:41;15.70;99.90
42201;DHT22;27869;51.442;7.540;2022-09-09T04:48:08;15.80;99.90
42201;DHT22;27869;51.442;7.540;2022-09-09T04:50:36;15.80;99.90
42201;DHT22;27869;51.442;7.540;2022-09-09T04:53:03;15.80;99.90
42201;DHT22;27869;51.442;7.540;2022-09-09T04:55:31;15.80;99.90
42201;DHT22;27869;51.442;7.540;2022-09-09T04:58:03;15.80;99.90
42201;DHT22;27869;51.442;7.540;2022-09-09T05:00:30;15.80;99.90
42201;DHT22;27869;51.442;7.540;2022-09-09T05:03:02;15.80;99.90
42201;DHT22;27869;51.442;7.540;2022-09-09T05:05:29;15.80;99.90
42201;DHT22;27869;51.442;7.540;2022-09-09T05:08:01;15.80;99.90
42201;DHT22;27869;51.442;7.540;2022-09-09T05:10:28;15.80;99.90
42201;DHT22;27869;51.442;7.540;2022-09-09T05:12:55;15.80;99.90
42201;DHT22;27869;51.442;7.540;2022-09-09T05:15:22;15.80;99.90
42201;DHT22;27869;51.442;7.540;2022-09-09T05:17:49;15.80;99.90
42201;DHT22;27869;51.442;7.540;2022-09-09T05:20:19;15.80;99.90
42201;DHT22;27869;51.442;7.540;2022-09-09T05:22:46;15.80;99.90
42201;DHT22;27869;51.442;7.540;2022-09-09T05:25:13;15.90;99.90
42201;DHT22;27869;51.442;7.540;2022-09-09T05:27:40;15.90;99.90
42201;DHT22;27869;51.442;7.540;2022-09-09T05:30:08;15.90;99.90
42201;DHT22;27869;51.442;7.540;2022-09-09T05:32:35;15.90;99.90
42201;DHT22;27869;51.442;7.540;2022-09-09T05:35:03;15.90;99.90
42201;DHT22;27869;51.442;7.540;2022-09-09T05:37:32;15.90;99.90
42201;DHT22;27869;51.442;7.540;2022-09-09T05:39:59;15.90;99.90
42201;DHT22;27869;51.442;7.540;2022-09-09T05:42:30;15.90;99.90
42201;DHT22;27869;51.442;7.540;2022-09-09T05:44:57;16.00;99.90
42201;DHT22;27869;51.442;7.540;2022-09-09T05:47:24;16.00;99.90
42201;DHT22;27869;51.442;7.540;2022-09-09T05:49:53;16.00;99.90
42201;DHT22;27869;51.442;7.540;2022-09-09T05:52:20;16.00;99.90
42201;DHT22;27869;51.442;7.540;2022-09-09T05:54:48;16.00;99.90
42201;DHT22;27869;51.442;7.540;2022-09-09T05:57:15;16.00;99.90
42201;DHT22;27869;51.442;7.540;2022-09-09T05:59:42;16.00;99.90
42201;DHT22;27869;51.442;7.540;2022-09-09T06:02:09;16.00;99.90
42201;DHT22;27869;51.442;7.540;2022-09-09T06:04:36;16.00;99.90
42201;DHT22;27869;51.442;7.540;2022-09-09T06:07:04;16.00;99.90
42201;DHT22;27869;51.442;7.540;2022-09-09T06:09:31;16.00;99.90
42201;DHT22;27869;51.442;7.540;2022-09-09T06:12:00;16.10;99.90
42201;DHT22;27869;51.442;7.540;2022-09-09T06:14:26;16.10;99.90
42201;DHT22;27869;51.442;7.540;2022-09-09T06:16:53;16.10;99.90
42201;DHT22;27869;51.442;7.540;2022-09-09T06:19:20;16.10;99.90
42201;DHT22;27869;51.442;7.540;2022-09-09T06:21:47;16.20;99.90
42201;DHT22;27869;51.442;7.540;2022-09-09T06:24:15;16.20;99.90
42201;DHT22;27869;51.442;7.540;2022-09-09T06:26:44;16.20;99.90
42201;DHT22;27869;51.442;7.540;2022-09-09T06:29:13;16.20;99.90
42201;DHT22;27869;51.442;7.540;2022-09-09T06:31:40;16.20;99.90
42201;DHT22;27869;51.442;7.540;2022-09-09T06:34:08;16.20;99.90
42201;DHT22;27869;51.442;7.540;2022-09-09T06:36:36;16.20;99.90
42201;DHT22;27869;51.442;7.540;2022-09-09T06:39:03;16.20;99.90
42201;DHT22;27869;51.442;7.540;2022-09-09T06:41:32;16.30;99.90
42201;DHT22;27869;51.442;7.540;2022-09-09T06:43:59;16.30;99.90
42201;DHT22;27869;51.442;7.540;2022-09-09T06:46:28;16.30;99.90
42201;DHT22;27869;51.442;7.540;2022-09-09T06:48:58;16.30;99.90
42201;DHT22;27869;51.442;7.540;2022-09-09T06:51:27;16.30;99.90
42201;DHT22;27869;51.442;7.540;2022-09-09T06:53:55;16.40;99.90
42201;DHT22;27869;51.442;7.540;2022-09-09T06:56:23;16.40;99.90
42201;DHT22;27869;51.442;7.540;2022-09-09T06:58:52;16.40;99.90
42201;DHT22;27869;51.442;7.540;2022-09-09T07:01:21;16.50;99.90
42201;DHT22;27869;51.442;7.540;2022-09-09T07:03:52;16.50;99.90
42201;DHT22;27869;51.442;7.540;2022-09-09T07:06:21;16.50;99.90
42201;DHT22;27869;51.442;7.540;2022-09-09T07:08:50;16.50;99.90
42201;DHT22;27869;51.442;7.540;2022-09-09T07:11:18;16.50;99.90
42201;DHT22;27869;51.442;7.540;2022-09-09T07:13:45;16.50;99.90
42201;DHT22;27869;51.442;7.540;2022-09-09T07:16:14;16.50;99.90
42201;DHT22;27869;51.442;7.540;2022-09-09T07:18:41;16.50;99.90
42201;DHT22;27869;51.442;7.540;2022-09-09T07:21:11;16.50;99.90
42201;DHT22;27869;51.442;7.540;2022-09-09T07:23:39;16.50;99.90
42201;DHT22;27869;51.442;7.540;2022-09-09T07:26:08;16.50;99.90
42201;DHT22;27869;51.442;7.540;2022-09-09T07:28:36;16.50;99.90
42201;DHT22;27869;51.442;7.540;2022-09-09T07:31:04;16.50;99.90
42201;DHT22;27869;51.442;7.540;2022-09-09T07:33:33;16.60;99.90
42201;DHT22;27869;51.442;7.540;2022-09-09T07:36:05;16.60;99.90
42201;DHT22;27869;51.442;7.540;2022-09-09T07:38:38;16.60;99.90
42201;DHT22;27869;51.442;7.540;2022-09-09T07:41:05;16.70;99.90
42201;DHT22;27869;51.442;7.540;2022-09-09T07:43:34;16.70;99.90
42201;DHT22;27869;51.442;7.540;2022-09-09T07:46:01;16.60;99.90
42201;DHT22;27869;51.442;7.540;2022-09-09T07:48:28;16.60;99.90
42201;DHT22;27869;51.442;7.540;2022-09-09T07:51:07;16.70;99.90
42201;DHT22;27869;51.442;7.540;2022-09-09T07:53:35;16.70;99.90
42201;DHT22;27869;51.442;7.540;2022-09-09T07:56:05;16.70;99.90
42201;DHT22;27869;51.442;7.540;2022-09-09T07:58:32;16.70;99.90
42201;DHT22;27869;51.442;7.540;2022-09-09T08:00:59;16.80;99.90
42201;DHT22;27869;51.442;7.540;2022-09-09T08:03:26;16.80;99.90
42201;DHT22;27869;51.442;7.540;2022-09-09T08:05:53;16.90;99.90
42201;DHT22;27869;51.442;7.540;2022-09-09T08:08:27;16.90;99.90
42201;DHT22;27869;51.442;7.540;2022-09-09T08:11:01;17.00;99.90
42201;DHT22;27869;51.442;7.540;2022-09-09T08:13:29;17.00;99.90
42201;DHT22;27869;51.442;7.540;2022-09-09T08:16:04;17.00;99.90
42201;DHT22;27869;51.442;7.540;2022-09-09T08:18:31;17.10;99.90
42201;DHT22;27869;51.442;7.540;2022-09-09T08:21:05;17.10;99.90
42201;DHT22;27869;51.442;7.540;2022-09-09T08:23:32;17.10;99.90
42201;DHT22;27869;51.442;7.540;2022-09-09T08:26:05;17.20;99.90
42201;DHT22;27869;51.442;7.540;2022-09-09T08:28:32;17.20;99.90
42201;DHT22;27869;51.442;7.540;2022-09-09T08:31:08;17.30;99.90
42201;DHT22;27869;51.442;7.540;2022-09-09T08:33:36;17.40;99.90
42201;DHT22;27869;51.442;7.540;2022-09-09T08:36:05;17.60;99.90
42201;DHT22;27869;51.442;7.540;2022-09-09T08:38:32;17.70;99.90
42201;DHT22;27869;51.442;7.540;2022-09-09T08:41:15;17.90;99.90
42201;DHT22;27869;51.442;7.540;2022-09-09T08:43:45;18.00;99.90
42201;DHT22;27869;51.442;7.540;2022-09-09T08:46:19;18.10;99.90
42201;DHT22;27869;51.442;7.540;2022-09-09T08:48:55;18.30;99.90
42201;DHT22;27869;51.442;7.540;2022-09-09T08:51:26;18.50;99.90
42201;DHT22;27869;51.442;7.540;2022-09-09T08:53:55;18.60;99.90
42201;DHT22;27869;51.442;7.540;2022-09-09T08:56:27;18.80;99.90
42201;DHT22;27869;51.442;7.540;2022-09-09T08:58:56;19.00;99.90
42201;DHT22;27869;51.442;7.540;2022-09-09T09:01:39;19.10;99.90
42201;DHT22;27869;51.442;7.540;2022-09-09T09:04:16;19.30;99.90
42201;DHT22;27869;51.442;7.540;2022-09-09T09:06:53;19.40;99.90
42201;DHT22;27869;51.442;7.540;2022-09-09T09:09:24;19.60;99.90
42201;DHT22;27869;51.442;7.540;2022-09-09T09:11:56;19.60;99.90
42201;DHT22;27869;51.442;7.540;2022-09-09T09:14:28;19.70;99.90
42201;DHT22;27869;51.442;7.540;2022-09-09T09:16:58;19.80;99.90
42201;DHT22;27869;51.442;7.540;2022-09-09T09:19:26;19.80;99.90
42201;DHT22;27869;51.442;7.540;2022-09-09T09:21:59;19.90;99.90
42201;DHT22;27869;51.442;7.540;2022-09-09T09:24:33;20.00;99.90
42201;DHT22;27869;51.442;7.540;2022-09-09T09:27:11;20.10;99.90
42201;DHT22;27869;51.442;7.540;2022-09-09T09:29:40;20.20;99.90
42201;DHT22;27869;51.442;7.540;2022-09-09T09:32:13;20.30;99.90
42201;DHT22;27869;51.442;7.540;2022-09-09T09:34:40;20.50;99.90
42201;DHT22;27869;51.442;7.540;2022-09-09T09:37:14;20.70;99.90
42201;DHT22;27869;51.442;7.540;2022-09-09T09:39:45;20.70;99.90
42201;DHT22;27869;51.442;7.540;2022-09-09T09:42:15;20.80;99.90
42201;DHT22;27869;51.442;7.540;2022-09-09T09:44:43;20.90;99.90
42201;DHT22;27869;51.442;7.540;2022-09-09T09:47:13;21.00;99.90
42201;DHT22;27869;51.442;7.540;2022-09-09T09:49:51;21.10;99.90
42201;DHT22;27869;51.442;7.540;2022-09-09T09:52:22;21.20;99.90
42201;DHT22;27869;51.442;7.540;2022-09-09T09:54:49;21.30;99.90
42201;DHT22;27869;51.442;7.540;2022-09-09T09:57:18;21.30;99.90
42201;DHT22;27869;51.442;7.540;2022-09-09T09:59:59;21.30;99.90
42201;DHT22;27869;51.442;7.540;2022-09-09T10:02:36;21.40;99.90
42201;DHT22;27869;51.442;7.540;2022-09-09T10:05:08;21.40;99.90
42201;DHT22;27869;51.442;7.540;2022-09-09T10:07:38;21.30;99.90
42201;DHT22;27869;51.442;7.540;2022-09-09T10:10:12;21.30;99.90
42201;DHT22;27869;51.442;7.540;2022-09-09T10:12:43;21.30;99.90
42201;DHT22;27869;51.442;7.540;2022-09-09T10:15:29;21.20;99.90
42201;DHT22;27869;51.442;7.540;2022-09-09T10:18:01;21.20;99.90
42201;DHT22;27869;51.442;7.540;2022-09-09T10:20:35;21.20;99.90
42201;DHT22;27869;51.442;7.540;2022-09-09T10:23:09;21.20;99.90
42201;DHT22;27869;51.442;7.540;2022-09-09T10:25:56;21.30;99.90
42201;DHT22;27869;51.442;7.540;2022-09-09T10:29:00;21.30;99.90
42201;DHT22;27869;51.442;7.540;2022-09-09T10:31:37;21.40;99.90
42201;DHT22;27869;51.442;7.540;2022-09-09T10:34:16;21.40;99.90
42201;DHT22;27869;51.442;7.540;2022-09-09T10:36:48;21.60;99.90
42201;DHT22;27869;51.442;7.540;2022-09-09T10:39:23;21.70;99.90
42201;DHT22;27869;51.442;7.540;2022-09-09T10:41:58;21.70;99.90
42201;DHT22;27869;51.442;7.540;2022-09-09T10:44:41;21.70;99.90
42201;DHT22;27869;51.442;7.540;2022-09-09T10:47:25;21.70;99.90
42201;DHT22;27869;51.442;7.540;2022-09-09T10:50:12;21.70;99.90
42201;DHT22;27869;51.442;7.540;2022-09-09T10:52:45;21.80;99.90
42201;DHT22;27869;51.442;7.540;2022-09-09T10:55:17;21.80;99.90
42201;DHT22;27869;51.442;7.540;2022-09-09T10:57:46;21.90;99.90
42201;DHT22;27869;51.442;7.540;2022-09-09T11:00:17;21.90;99.90
42201;DHT22;27869;51.442;7.540;2022-09-09T11:02:48;21.90;99.90
42201;DHT22;27869;51.442;7.540;2022-09-09T11:05:20;21.90;99.90
42201;DHT22;27869;51.442;7.540;2022-09-09T11:07:50;21.80;99.90
42201;DHT22;27869;51.442;7.540;2022-09-09T11:10:24;21.80;99.90
42201;DHT22;27869;51.442;7.540;2022-09-09T11:12:54;21.80;99.90
42201;DHT22;27869;51.442;7.540;2022-09-09T11:15:29;21.80;99.90
42201;DHT22;27869;51.442;7.540;2022-09-09T11:18:01;21.70;99.90
42201;DHT22;27869;51.442;7.540;2022-09-09T11:20:28;21.60;99.90
42201;DHT22;27869;51.442;7.540;2022-09-09T11:22:58;21.60;99.90
42201;DHT22;27869;51.442;7.540;2022-09-09T11:25:31;21.60;99.90
42201;DHT22;27869;51.442;7.540;2022-09-09T11:28:24;21.70;99.90
42201;DHT22;27869;51.442;7.540;2022-09-09T11:31:04;21.80;99.90
42201;DHT22;27869;51.442;7.540;2022-09-09T11:33:49;21.80;99.90
42201;DHT22;27869;51.442;7.540;2022-09-09T11:36:38;21.90;99.90
42201;DHT22;27869;51.442;7.540;2022-09-09T11:39:25;21.90;99.90
42201;DHT22;27869;51.442;7.540;2022-09-09T11:42:06;22.00;99.90
42201;DHT22;27869;51.442;7.540;2022-09-09T11:44:33;22.00;99.90
42201;DHT22;27869;51.442;7.540;2022-09-09T11:47:02;22.00;99.90
42201;DHT22;27869;51.442;7.540;2022-09-09T11:49:38;22.00;99.90
42201;DHT22;27869;51.442;7.540;2022-09-09T11:52:18;22.00;99.90
42201;DHT22;27869;51.442;7.540;2022-09-09T11:54:49;22.00;99.90
42201;DHT22;27869;51.442;7.540;2022-09-09T11:57:24;22.00;99.90
42201;DHT22;27869;51.442;7.540;2022-09-09T11:59:52;22.00;99.90
42201;DHT22;27869;51.442;7.540;2022-09-09T12:02:23;22.00;99.90
42201;DHT22;27869;51.442;7.540;2022-09-09T12:04:57;22.10;99.90
42201;DHT22;27869;51.442;7.540;2022-09-09T12:07:32;22.10;99.90
42201;DHT22;27869;51.442;7.540;2022-09-09T12:10:03;22.10;99.90
42201;DHT22;27869;51.442;7.540;2022-09-09T12:12:33;22.10;99.90
42201;DHT22;27869;51.442;7.540;2022-09-09T12:15:22;22.20;99.90
42201;DHT22;27869;51.442;7.540;2022-09-09T12:17:52;22.10;99.90
42201;DHT22;27869;51.442;7.540;2022-09-09T12:20:21;22.10;99.90
42201;DHT22;27869;51.442;7.540;2022-09-09T12:28:58;22.20;99.90
42201;DHT22;27869;51.442;7.540;2022-09-09T12:31:33;22.10;99.90
42201;DHT22;27869;51.442;7.540;2022-09-09T12:34:11;22.10;99.90
42201;DHT22;27869;51.442;7.540;2022-09-09T12:36:41;22.10;99.90
42201;DHT22;27869;51.442;7.540;2022-09-09T12:39:17;22.00;99.90
42201;DHT22;27869;51.442;7.540;2022-09-09T12:41:51;22.00;99.90
42201;DHT22;27869;51.442;7.540;2022-09-09T12:44:22;22.00;99.90
42201;DHT22;27869;51.442;7.540;2022-09-09T12:46:49;21.80;99.90
42201;DHT22;27869;51.442;7.540;2022-09-09T12:49:29;21.60;99.90
42201;DHT22;27869;51.442;7.540;2022-09-09T12:52:01;21.50;99.90
42201;DHT22;27869;51.442;7.540;2022-09-09T12:54:28;21.40;99.90
42201;DHT22;27869;51.442;7.540;2022-09-09T12:56:55;21.30;99.90
42201;DHT22;27869;51.442;7.540;2022-09-09T12:59:25;21.10;99.90
42201;DHT22;27869;51.442;7.540;2022-09-09T13:01:56;21.10;99.90
42201;DHT22;27869;51.442;7.540;2022-09-09T13:04:25;21.00;99.90
42201;DHT22;27869;51.442;7.540;2022-09-09T13:06:52;20.80;99.90
42201;DHT22;27869;51.442;7.540;2022-09-09T13:09:19;20.70;99.90
42201;DHT22;27869;51.442;7.540;2022-09-09T13:11:49;20.70;99.90
42201;DHT22;27869;51.442;7.540;2022-09-09T13:14:28;20.60;99.90
42201;DHT22;27869;51.442;7.540;2022-09-09T13:16:56;20.60;99.90
42201;DHT22;27869;51.442;7.540;2022-09-09T13:19:25;20.50;99.90
42201;DHT22;27869;51.442;7.540;2022-09-09T13:21:54;20.60;99.90
42201;DHT22;27869;51.442;7.540;2022-09-09T13:24:29;20.50;99.90
42201;DHT22;27869;51.442;7.540;2022-09-09T13:26:57;20.50;99.90
42201;DHT22;27869;51.442;7.540;2022-09-09T13:29:25;20.50;99.90
42201;DHT22;27869;51.442;7.540;2022-09-09T13:31:53;20.50;99.90
42201;DHT22;27869;51.442;7.540;2022-09-09T13:34:28;20.50;99.90
42201;DHT22;27869;51.442;7.540;2022-09-09T13:36:59;20.60;99.90
42201;DHT22;27869;51.442;7.540;2022-09-09T13:39:28;20.60;99.90
42201;DHT22;27869;51.442;7.540;2022-09-09T13:41:55;20.70;99.90
42201;DHT22;27869;51.442;7.540;2022-09-09T13:44:25;20.70;99.90
42201;DHT22;27869;51.442;7.540;2022-09-09T13:47:03;20.70;99.90
42201;DHT22;27869;51.442;7.540;2022-09-09T13:49:32;20.70;99.90
42201;DHT22;27869;51.442;7.540;2022-09-09T13:52:06;20.70;99.90
42201;DHT22;27869;51.442;7.540;2022-09-09T13:54:35;20.70;99.90
42201;DHT22;27869;51.442;7.540;2022-09-09T13:57:02;20.70;99.90
42201;DHT22;27869;51.442;7.540;2022-09-09T13:59:30;20.70;99.90
42201;DHT22;27869;51.442;7.540;2022-09-09T14:01:57;20.70;99.90
42201;DHT22;27869;51.442;7.540;2022-09-09T14:04:24;20.70;99.90
42201;DHT22;27869;51.442;7.540;2022-09-09T14:06:53;20.60;99.90
42201;DHT22;27869;51.442;7.540;2022-09-09T14:09:21;20.60;99.90
42201;DHT22;27869;51.442;7.540;2022-09-09T14:11:48;20.60;99.90
42201;DHT22;27869;51.442;7.540;2022-09-09T14:14:15;20.40;99.90
42201;DHT22;27869;51.442;7.540;2022-09-09T14:16:42;20.30;99.90
42201;DHT22;27869;51.442;7.540;2022-09-09T14:19:09;20.20;99.90
42201;DHT22;27869;51.442;7.540;2022-09-09T14:21:36;20.10;99.90
42201;DHT22;27869;51.442;7.540;2022-09-09T14:24:05;20.00;99.90
42201;DHT22;27869;51.442;7.540;2022-09-09T14:26:35;19.90;99.90
42201;DHT22;27869;51.442;7.540;2022-09-09T14:29:02;19.90;99.90
42201;DHT22;27869;51.442;7.540;2022-09-09T14:31:29;19.80;99.90
42201;DHT22;27869;51.442;7.540;2022-09-09T14:33:56;19.80;99.90
42201;DHT22;27869;51.442;7.540;2022-09-09T14:36:24;19.80;99.90
42201;DHT22;27869;51.442;7.540;2022-09-09T14:38:51;19.70;99.90
42201;DHT22;27869;51.442;7.540;2022-09-09T14:41:20;19.70;99.90
42201;DHT22;27869;51.442;7.540;2022-09-09T14:43:48;19.70;99.90
42201;DHT22;27869;51.442;7.540;2022-09-09T14:46:17;19.70;99.90
42201;DHT22;27869;51.442;7.540;2022-09-09T14:48:44;19.70;99.90
42201;DHT22;27869;51.442;7.540;2022-09-09T14:51:16;19.70;99.90
42201;DHT22;27869;51.442;7.540;2022-09-09T14:53:43;19.80;99.90
42201;DHT22;27869;51.442;7.540;2022-09-09T14:56:12;19.90;99.90
42201;DHT22;27869;51.442;7.540;2022-09-09T14:58:41;19.90;99.90
42201;DHT22;27869;51.442;7.540;2022-09-09T15:01:09;19.90;99.90
42201;DHT22;27869;51.442;7.540;2022-09-09T15:03:37;19.90;99.90
42201;DHT22;27869;51.442;7.540;2022-09-09T15:06:07;19.90;99.90
42201;DHT22;27869;51.442;7.540;2022-09-09T15:08:35;19.90;99.90
42201;DHT22;27869;51.442;7.540;2022-09-09T15:11:03;19.80;99.90
42201;DHT22;27869;51.442;7.540;2022-09-09T15:13:30;19.80;99.90
42201;DHT22;27869;51.442;7.540;2022-09-09T15:16:05;19.70;99.90
42201;DHT22;27869;51.442;7.540;2022-09-09T15:18:32;19.70;99.90
42201;DHT22;27869;51.442;7.540;2022-09-09T15:21:02;19.60;99.90
42201;DHT22;27869;51.442;7.540;2022-09-09T15:23:31;19.60;99.90
42201;DHT22;27869;51.442;7.540;2022-09-09T15:25:58;19.60;99.90
42201;DHT22;27869;51.442;7.540;2022-09-09T15:28:25;19.60;99.90
42201;DHT22;27869;51.442;7.540;2022-09-09T15:30:53;19.50;99.90
42201;DHT22;27869;51.442;7.540;2022-09-09T15:33:22;19.50;99.90
42201;DHT22;27869;51.442;7.540;2022-09-09T15:35:49;19.50;99.90
42201;DHT22;27869;51.442;7.540;2022-09-09T15:38:16;19.50;99.90
42201;DHT22;27869;51.442;7.540;2022-09-09T15:40:44;19.50;99.90
42201;DHT22;27869;51.442;7.540;2022-09-09T15:43:12;19.40;99.90
42201;DHT22;27869;51.442;7.540;2022-09-09T15:45:39;19.20;99.90
42201;DHT22;27869;51.442;7.540;2022-09-09T15:48:06;19.20;99.90
42201;DHT22;27869;51.442;7.540;2022-09-09T15:50:34;19.00;99.90
42201;DHT22;27869;51.442;7.540;2022-09-09T15:53:01;18.90;99.90
42201;DHT22;27869;51.442;7.540;2022-09-09T15:55:28;18.90;99.90
42201;DHT22;27869;51.442;7.540;2022-09-09T15:57:55;18.70;99.90